Accueil
METAR-TAF:

METAR-TAF

Aéroports :

Nakhon Si Thammarat, Thaïlande

latitude: 8-32-22N, longitude: 99-56-41E, altitude: 4 m

Observation

Le bulletin a été fait il y a 2 heures et 42 minutes, à 13:00 UTC
Vent calme
Température 25°C
Humidité 89%
Pression 1010 hPa
Visibilité 10 km ou plus
Quelques nuages à une hauteur de 1800 ft

METAR: VTSF 261300Z 00000KT 9999 FEW018 25/23 Q1010 NOSIG

Heure: 22:42 (15:42 UTC)

Prévision

Le bulletin a été fait il y a 4 heures et 42 minutes, à 11:00 UTC
Prévision valable du 26 à 12 UTC au 27 à 12 UTC
Vent 3 kt de sud-est
Visibilité 10 km ou plus
Quelques nuages à une hauteur de 2000 ft

TAF: VTSF 261100Z 2612/2712 14003KT 9999 FEW020

Observations et prévisions météorologiques de plus de 4000 aéroports (messages METAR et TAF).

Les stations disponibles sont représentées par des disques jaunes et rouges sur la carte.

Passer la souris dessus pour voir le nom de la station.

Cliquer dessus pour voir les observations et prévisions météorologiques.

Pour changer de carte: cliquez sur les boutons verts avec une croix noire pour zoomer, sur le bouton vert avec un tiret pour effectuer un zoom arrière, ou sur les flèches vertes pour les cartes adjacentes.


METAR-TAF: